sensor_id;sensor_type;location;lat;lon;timestamp;temperature;humidity
21207;DHT22;10761;48.532;8.026;2022-12-07T00:01:41;4.10;99.90
21207;DHT22;10761;48.532;8.026;2022-12-07T00:04:09;4.10;99.90
21207;DHT22;10761;48.532;8.026;2022-12-07T00:06:37;4.10;99.90
21207;DHT22;10761;48.532;8.026;2022-12-07T00:09:05;4.10;99.90
21207;DHT22;10761;48.532;8.026;2022-12-07T00:11:31;4.10;99.90
21207;DHT22;10761;48.532;8.026;2022-12-07T00:13:59;4.10;99.90
21207;DHT22;10761;48.532;8.026;2022-12-07T00:16:28;4.20;99.90
21207;DHT22;10761;48.532;8.026;2022-12-07T00:18:54;4.20;99.90
21207;DHT22;10761;48.532;8.026;2022-12-07T00:21:38;4.20;99.90
21207;DHT22;10761;48.532;8.026;2022-12-07T00:24:05;4.20;99.90
21207;DHT22;10761;48.532;8.026;2022-12-07T00:26:36;4.20;99.90
21207;DHT22;10761;48.532;8.026;2022-12-07T00:29:05;4.10;99.90
21207;DHT22;10761;48.532;8.026;2022-12-07T00:31:34;4.00;99.90
21207;DHT22;10761;48.532;8.026;2022-12-07T00:34:04;3.90;99.90
21207;DHT22;10761;48.532;8.026;2022-12-07T00:36:30;3.80;99.90
21207;DHT22;10761;48.532;8.026;2022-12-07T00:38:57;3.80;99.90
21207;DHT22;10761;48.532;8.026;2022-12-07T00:41:25;3.80;99.90
21207;DHT22;10761;48.532;8.026;2022-12-07T00:43:51;3.80;99.90
21207;DHT22;10761;48.532;8.026;2022-12-07T00:46:18;3.90;99.90
21207;DHT22;10761;48.532;8.026;2022-12-07T00:48:44;3.90;99.90
21207;DHT22;10761;48.532;8.026;2022-12-07T00:51:11;3.80;99.90
21207;DHT22;10761;48.532;8.026;2022-12-07T00:53:38;3.80;99.90
21207;DHT22;10761;48.532;8.026;2022-12-07T00:56:33;3.80;99.90
21207;DHT22;10761;48.532;8.026;2022-12-07T00:59:01;3.70;99.90
21207;DHT22;10761;48.532;8.026;2022-12-07T01:01:29;3.80;99.90
21207;DHT22;10761;48.532;8.026;2022-12-07T01:03:55;3.80;99.90
21207;DHT22;10761;48.532;8.026;2022-12-07T01:06:22;3.80;99.90
21207;DHT22;10761;48.532;8.026;2022-12-07T01:08:48;3.90;99.90
21207;DHT22;10761;48.532;8.026;2022-12-07T01:11:17;3.90;99.90
21207;DHT22;10761;48.532;8.026;2022-12-07T01:13:44;3.80;99.90
21207;DHT22;10761;48.532;8.026;2022-12-07T01:16:12;3.80;99.90
21207;DHT22;10761;48.532;8.026;2022-12-07T01:18:39;3.80;99.90
21207;DHT22;10761;48.532;8.026;2022-12-07T01:21:10;3.80;99.90
21207;DHT22;10761;48.532;8.026;2022-12-07T01:23:36;3.90;99.90
21207;DHT22;10761;48.532;8.026;2022-12-07T01:26:05;3.90;99.90
21207;DHT22;10761;48.532;8.026;2022-12-07T01:28:31;3.90;99.90
21207;DHT22;10761;48.532;8.026;2022-12-07T01:31:05;3.90;99.90
21207;DHT22;10761;48.532;8.026;2022-12-07T01:33:37;3.90;99.90
21207;DHT22;10761;48.532;8.026;2022-12-07T01:36:16;3.90;99.90
21207;DHT22;10761;48.532;8.026;2022-12-07T01:38:42;3.90;99.90
21207;DHT22;10761;48.532;8.026;2022-12-07T01:41:09;3.80;99.90
21207;DHT22;10761;48.532;8.026;2022-12-07T01:43:35;3.90;99.90
21207;DHT22;10761;48.532;8.026;2022-12-07T01:46:02;4.00;99.90
21207;DHT22;10761;48.532;8.026;2022-12-07T01:51:01;3.90;99.90
21207;DHT22;10761;48.532;8.026;2022-12-07T01:53:29;3.90;99.90
21207;DHT22;10761;48.532;8.026;2022-12-07T01:55:56;3.90;99.90
21207;DHT22;10761;48.532;8.026;2022-12-07T01:58:23;3.90;99.90
21207;DHT22;10761;48.532;8.026;2022-12-07T02:00:49;3.90;99.90
21207;DHT22;10761;48.532;8.026;2022-12-07T02:03:22;3.90;99.90
21207;DHT22;10761;48.532;8.026;2022-12-07T02:05:50;3.90;99.90
21207;DHT22;10761;48.532;8.026;2022-12-07T02:08:16;3.90;99.90
21207;DHT22;10761;48.532;8.026;2022-12-07T02:10:43;3.90;99.90
21207;DHT22;10761;48.532;8.026;2022-12-07T02:13:24;3.90;99.90
21207;DHT22;10761;48.532;8.026;2022-12-07T02:30:23;3.80;99.90
21207;DHT22;10761;48.532;8.026;2022-12-07T02:32:58;3.80;99.90
21207;DHT22;10761;48.532;8.026;2022-12-07T02:35:30;3.80;99.90
21207;DHT22;10761;48.532;8.026;2022-12-07T02:38:07;3.80;99.90
21207;DHT22;10761;48.532;8.026;2022-12-07T02:43:25;3.90;99.90
21207;DHT22;10761;48.532;8.026;2022-12-07T02:45:54;3.90;99.90
21207;DHT22;10761;48.532;8.026;2022-12-07T02:48:21;3.80;99.90
21207;DHT22;10761;48.532;8.026;2022-12-07T02:50:51;3.80;99.90
21207;DHT22;10761;48.532;8.026;2022-12-07T02:53:54;3.80;99.90
21207;DHT22;10761;48.532;8.026;2022-12-07T02:59:29;3.70;99.90
21207;DHT22;10761;48.532;8.026;2022-12-07T03:15:31;3.60;99.90
21207;DHT22;10761;48.532;8.026;2022-12-07T03:18:00;3.60;99.90
21207;DHT22;10761;48.532;8.026;2022-12-07T03:20:27;3.60;99.90
21207;DHT22;10761;48.532;8.026;2022-12-07T03:22:54;3.60;99.90
21207;DHT22;10761;48.532;8.026;2022-12-07T03:25:21;3.60;99.90
21207;DHT22;10761;48.532;8.026;2022-12-07T03:27:54;3.60;99.90
21207;DHT22;10761;48.532;8.026;2022-12-07T03:30:42;3.60;99.90
21207;DHT22;10761;48.532;8.026;2022-12-07T03:33:16;3.60;99.90
21207;DHT22;10761;48.532;8.026;2022-12-07T03:38:53;3.50;99.90
21207;DHT22;10761;48.532;8.026;2022-12-07T03:41:29;3.40;99.90
21207;DHT22;10761;48.532;8.026;2022-12-07T03:43:56;3.50;99.90
21207;DHT22;10761;48.532;8.026;2022-12-07T03:49:19;3.40;99.90
21207;DHT22;10761;48.532;8.026;2022-12-07T03:54:47;3.30;99.90
21207;DHT22;10761;48.532;8.026;2022-12-07T03:57:14;3.30;99.90
21207;DHT22;10761;48.532;8.026;2022-12-07T03:59:40;3.20;99.90
21207;DHT22;10761;48.532;8.026;2022-12-07T04:05:35;3.20;99.90
21207;DHT22;10761;48.532;8.026;2022-12-07T04:08:01;3.10;99.90
21207;DHT22;10761;48.532;8.026;2022-12-07T04:10:26;2.90;99.90
21207;DHT22;10761;48.532;8.026;2022-12-07T04:12:52;2.80;99.90
21207;DHT22;10761;48.532;8.026;2022-12-07T04:15:17;2.70;99.90
21207;DHT22;10761;48.532;8.026;2022-12-07T04:17:43;2.70;99.90
21207;DHT22;10761;48.532;8.026;2022-12-07T04:20:09;2.60;99.90
21207;DHT22;10761;48.532;8.026;2022-12-07T04:22:35;2.60;99.90
21207;DHT22;10761;48.532;8.026;2022-12-07T04:25:01;2.60;99.90
21207;DHT22;10761;48.532;8.026;2022-12-07T04:27:26;2.60;99.90
21207;DHT22;10761;48.532;8.026;2022-12-07T04:29:52;2.70;99.90
21207;DHT22;10761;48.532;8.026;2022-12-07T04:32:18;2.70;99.90
21207;DHT22;10761;48.532;8.026;2022-12-07T04:34:43;2.70;99.90
21207;DHT22;10761;48.532;8.026;2022-12-07T04:37:09;2.70;99.90
21207;DHT22;10761;48.532;8.026;2022-12-07T04:39:34;2.70;99.90
21207;DHT22;10761;48.532;8.026;2022-12-07T04:42:01;2.80;99.90
21207;DHT22;10761;48.532;8.026;2022-12-07T04:44:27;2.80;99.90
21207;DHT22;10761;48.532;8.026;2022-12-07T04:46:54;2.70;99.90
21207;DHT22;10761;48.532;8.026;2022-12-07T04:49:20;2.70;99.90
21207;DHT22;10761;48.532;8.026;2022-12-07T04:51:47;2.80;99.90
21207;DHT22;10761;48.532;8.026;2022-12-07T04:54:13;2.80;99.90
21207;DHT22;10761;48.532;8.026;2022-12-07T04:56:39;2.90;99.90
21207;DHT22;10761;48.532;8.026;2022-12-07T04:59:06;2.80;99.90
21207;DHT22;10761;48.532;8.026;2022-12-07T05:01:32;2.70;99.90
21207;DHT22;10761;48.532;8.026;2022-12-07T05:03:58;2.70;99.90
21207;DHT22;10761;48.532;8.026;2022-12-07T05:06:23;2.60;99.90
21207;DHT22;10761;48.532;8.026;2022-12-07T05:08:49;2.60;99.90
21207;DHT22;10761;48.532;8.026;2022-12-07T05:11:16;2.50;99.90
21207;DHT22;10761;48.532;8.026;2022-12-07T05:14:02;2.50;99.90
21207;DHT22;10761;48.532;8.026;2022-12-07T05:16:28;2.60;99.90
21207;DHT22;10761;48.532;8.026;2022-12-07T05:18:54;2.70;99.90
21207;DHT22;10761;48.532;8.026;2022-12-07T05:21:19;2.60;99.90
21207;DHT22;10761;48.532;8.026;2022-12-07T05:23:45;2.60;99.90
21207;DHT22;10761;48.532;8.026;2022-12-07T05:26:11;2.50;99.90
21207;DHT22;10761;48.532;8.026;2022-12-07T05:28:37;2.50;99.90
21207;DHT22;10761;48.532;8.026;2022-12-07T05:31:02;2.40;99.90
21207;DHT22;10761;48.532;8.026;2022-12-07T05:33:28;2.40;99.90
21207;DHT22;10761;48.532;8.026;2022-12-07T05:35:54;2.30;99.90
21207;DHT22;10761;48.532;8.026;2022-12-07T05:38:19;2.30;99.90
21207;DHT22;10761;48.532;8.026;2022-12-07T05:40:45;2.20;99.90
21207;DHT22;10761;48.532;8.026;2022-12-07T05:43:11;2.20;99.90
21207;DHT22;10761;48.532;8.026;2022-12-07T05:45:36;2.20;99.90
21207;DHT22;10761;48.532;8.026;2022-12-07T05:48:02;2.20;99.90
21207;DHT22;10761;48.532;8.026;2022-12-07T05:50:27;2.20;99.90
21207;DHT22;10761;48.532;8.026;2022-12-07T05:52:53;2.20;99.90
21207;DHT22;10761;48.532;8.026;2022-12-07T05:55:19;2.10;99.90
21207;DHT22;10761;48.532;8.026;2022-12-07T05:57:44;2.20;99.90
21207;DHT22;10761;48.532;8.026;2022-12-07T06:00:30;2.20;99.90
21207;DHT22;10761;48.532;8.026;2022-12-07T06:02:56;2.20;99.90
21207;DHT22;10761;48.532;8.026;2022-12-07T06:05:21;2.20;99.90
21207;DHT22;10761;48.532;8.026;2022-12-07T06:07:47;2.20;99.90
21207;DHT22;10761;48.532;8.026;2022-12-07T06:10:12;2.10;99.90
21207;DHT22;10761;48.532;8.026;2022-12-07T06:12:38;2.20;99.90
21207;DHT22;10761;48.532;8.026;2022-12-07T06:15:05;2.20;99.90
21207;DHT22;10761;48.532;8.026;2022-12-07T06:17:31;2.20;99.90
21207;DHT22;10761;48.532;8.026;2022-12-07T06:19:57;2.30;99.90
21207;DHT22;10761;48.532;8.026;2022-12-07T06:22:22;2.30;99.90
21207;DHT22;10761;48.532;8.026;2022-12-07T06:24:48;2.30;99.90
21207;DHT22;10761;48.532;8.026;2022-12-07T06:27:14;2.20;99.90
21207;DHT22;10761;48.532;8.026;2022-12-07T06:29:39;2.20;99.90
21207;DHT22;10761;48.532;8.026;2022-12-07T06:32:05;2.20;99.90
21207;DHT22;10761;48.532;8.026;2022-12-07T06:34:31;2.20;99.90
21207;DHT22;10761;48.532;8.026;2022-12-07T06:36:57;2.30;99.90
21207;DHT22;10761;48.532;8.026;2022-12-07T06:39:25;2.30;99.90
21207;DHT22;10761;48.532;8.026;2022-12-07T06:41:51;2.30;99.90
21207;DHT22;10761;48.532;8.026;2022-12-07T06:44:18;2.40;99.90
21207;DHT22;10761;48.532;8.026;2022-12-07T06:46:43;2.40;99.90
21207;DHT22;10761;48.532;8.026;2022-12-07T06:49:09;2.40;99.90
21207;DHT22;10761;48.532;8.026;2022-12-07T06:51:35;2.40;99.90
21207;DHT22;10761;48.532;8.026;2022-12-07T06:54:02;2.40;99.90
21207;DHT22;10761;48.532;8.026;2022-12-07T06:56:29;2.40;99.90
21207;DHT22;10761;48.532;8.026;2022-12-07T06:58:55;2.40;99.90
21207;DHT22;10761;48.532;8.026;2022-12-07T07:01:20;2.50;99.90
21207;DHT22;10761;48.532;8.026;2022-12-07T07:03:46;2.50;99.90
21207;DHT22;10761;48.532;8.026;2022-12-07T07:06:13;2.50;99.90
21207;DHT22;10761;48.532;8.026;2022-12-07T07:08:39;2.50;99.90
21207;DHT22;10761;48.532;8.026;2022-12-07T07:11:07;2.50;99.90
21207;DHT22;10761;48.532;8.026;2022-12-07T07:13:33;2.70;99.90
21207;DHT22;10761;48.532;8.026;2022-12-07T07:15:59;2.70;99.90
21207;DHT22;10761;48.532;8.026;2022-12-07T07:18:25;2.80;99.90
21207;DHT22;10761;48.532;8.026;2022-12-07T07:20:51;2.80;99.90
21207;DHT22;10761;48.532;8.026;2022-12-07T07:23:18;2.80;99.90
21207;DHT22;10761;48.532;8.026;2022-12-07T07:25:44;2.70;99.90
21207;DHT22;10761;48.532;8.026;2022-12-07T07:28:10;2.70;99.90
21207;DHT22;10761;48.532;8.026;2022-12-07T07:30:36;2.80;99.90
21207;DHT22;10761;48.532;8.026;2022-12-07T07:33:02;2.80;99.90
21207;DHT22;10761;48.532;8.026;2022-12-07T07:35:30;2.80;99.90
21207;DHT22;10761;48.532;8.026;2022-12-07T07:37:56;2.80;99.90
21207;DHT22;10761;48.532;8.026;2022-12-07T07:40:22;2.80;99.90
21207;DHT22;10761;48.532;8.026;2022-12-07T07:42:49;2.90;99.90
21207;DHT22;10761;48.532;8.026;2022-12-07T07:45:15;2.90;99.90
21207;DHT22;10761;48.532;8.026;2022-12-07T07:47:40;3.00;99.90
21207;DHT22;10761;48.532;8.026;2022-12-07T07:50:06;3.00;99.90
21207;DHT22;10761;48.532;8.026;2022-12-07T07:52:32;3.00;99.90
21207;DHT22;10761;48.532;8.026;2022-12-07T07:54:58;3.00;99.90
21207;DHT22;10761;48.532;8.026;2022-12-07T07:57:23;3.00;99.90
21207;DHT22;10761;48.532;8.026;2022-12-07T07:59:49;3.00;99.90
21207;DHT22;10761;48.532;8.026;2022-12-07T08:02:16;3.00;99.90
21207;DHT22;10761;48.532;8.026;2022-12-07T08:04:42;3.00;99.90
21207;DHT22;10761;48.532;8.026;2022-12-07T08:07:08;3.10;99.90
21207;DHT22;10761;48.532;8.026;2022-12-07T08:09:34;3.20;99.90
21207;DHT22;10761;48.532;8.026;2022-12-07T08:12:00;3.20;99.90
21207;DHT22;10761;48.532;8.026;2022-12-07T08:14:26;3.20;99.90
21207;DHT22;10761;48.532;8.026;2022-12-07T08:16:52;3.30;99.90
21207;DHT22;10761;48.532;8.026;2022-12-07T08:19:18;3.40;99.90
21207;DHT22;10761;48.532;8.026;2022-12-07T08:21:44;3.40;99.90
21207;DHT22;10761;48.532;8.026;2022-12-07T08:24:09;3.40;99.90
21207;DHT22;10761;48.532;8.026;2022-12-07T08:26:35;3.40;99.90
21207;DHT22;10761;48.532;8.026;2022-12-07T08:29:01;3.40;99.90
21207;DHT22;10761;48.532;8.026;2022-12-07T08:31:26;3.50;99.90
21207;DHT22;10761;48.532;8.026;2022-12-07T08:33:53;3.50;99.90
21207;DHT22;10761;48.532;8.026;2022-12-07T08:36:19;3.50;99.90
21207;DHT22;10761;48.532;8.026;2022-12-07T08:38:46;3.60;99.90
21207;DHT22;10761;48.532;8.026;2022-12-07T08:41:12;3.70;99.90
21207;DHT22;10761;48.532;8.026;2022-12-07T08:43:38;3.70;99.90
21207;DHT22;10761;48.532;8.026;2022-12-07T08:46:09;3.70;99.90
21207;DHT22;10761;48.532;8.026;2022-12-07T08:48:39;3.80;99.90
21207;DHT22;10761;48.532;8.026;2022-12-07T08:51:06;3.80;99.90
21207;DHT22;10761;48.532;8.026;2022-12-07T08:53:32;3.90;99.90
21207;DHT22;10761;48.532;8.026;2022-12-07T08:55:58;3.90;99.90
21207;DHT22;10761;48.532;8.026;2022-12-07T08:58:25;4.00;99.90
21207;DHT22;10761;48.532;8.026;2022-12-07T09:00:51;4.00;99.90
21207;DHT22;10761;48.532;8.026;2022-12-07T09:03:17;4.10;99.90
21207;DHT22;10761;48.532;8.026;2022-12-07T09:05:43;4.20;99.90
21207;DHT22;10761;48.532;8.026;2022-12-07T09:08:09;4.20;99.90
21207;DHT22;10761;48.532;8.026;2022-12-07T09:10:34;4.30;99.90
21207;DHT22;10761;48.532;8.026;2022-12-07T09:13:00;4.40;99.90
21207;DHT22;10761;48.532;8.026;2022-12-07T09:15:27;4.60;99.90
21207;DHT22;10761;48.532;8.026;2022-12-07T09:17:53;4.60;99.90
21207;DHT22;10761;48.532;8.026;2022-12-07T09:20:18;4.80;99.90
21207;DHT22;10761;48.532;8.026;2022-12-07T09:22:44;4.90;99.90
21207;DHT22;10761;48.532;8.026;2022-12-07T09:25:10;5.00;99.90
21207;DHT22;10761;48.532;8.026;2022-12-07T09:27:36;5.00;99.90
21207;DHT22;10761;48.532;8.026;2022-12-07T09:30:02;5.00;99.90
21207;DHT22;10761;48.532;8.026;2022-12-07T09:32:28;5.10;99.90
21207;DHT22;10761;48.532;8.026;2022-12-07T09:34:53;5.10;99.90
21207;DHT22;10761;48.532;8.026;2022-12-07T09:37:22;5.10;99.90
21207;DHT22;10761;48.532;8.026;2022-12-07T09:39:47;5.20;99.90
21207;DHT22;10761;48.532;8.026;2022-12-07T09:42:41;5.20;99.90
21207;DHT22;10761;48.532;8.026;2022-12-07T09:45:32;5.20;99.90
21207;DHT22;10761;48.532;8.026;2022-12-07T09:47:59;5.20;99.90
21207;DHT22;10761;48.532;8.026;2022-12-07T09:50:27;5.30;99.90
21207;DHT22;10761;48.532;8.026;2022-12-07T09:52:55;5.20;99.90
21207;DHT22;10761;48.532;8.026;2022-12-07T09:55:29;5.30;99.90
21207;DHT22;10761;48.532;8.026;2022-12-07T09:57:57;5.40;99.90
21207;DHT22;10761;48.532;8.026;2022-12-07T10:00:23;5.40;99.90
21207;DHT22;10761;48.532;8.026;2022-12-07T10:02:57;5.40;99.90
21207;DHT22;10761;48.532;8.026;2022-12-07T10:05:32;5.40;99.90
21207;DHT22;10761;48.532;8.026;2022-12-07T10:08:00;5.30;99.90
21207;DHT22;10761;48.532;8.026;2022-12-07T10:10:31;5.30;99.90
21207;DHT22;10761;48.532;8.026;2022-12-07T10:13:00;5.00;99.90
21207;DHT22;10761;48.532;8.026;2022-12-07T10:15:58;4.70;99.90
21207;DHT22;10761;48.532;8.026;2022-12-07T10:18:34;4.60;99.90
21207;DHT22;10761;48.532;8.026;2022-12-07T10:21:25;4.60;99.90
21207;DHT22;10761;48.532;8.026;2022-12-07T10:24:06;4.60;99.90
21207;DHT22;10761;48.532;8.026;2022-12-07T10:31:40;4.80;99.90
21207;DHT22;10761;48.532;8.026;2022-12-07T10:36:47;4.90;99.90
21207;DHT22;10761;48.532;8.026;2022-12-07T10:39:22;4.90;99.90
21207;DHT22;10761;48.532;8.026;2022-12-07T10:41:56;4.90;99.90
21207;DHT22;10761;48.532;8.026;2022-12-07T10:44:26;4.80;99.90
21207;DHT22;10761;48.532;8.026;2022-12-07T10:58:27;5.00;99.90
21207;DHT22;10761;48.532;8.026;2022-12-07T11:06:34;5.20;99.90
21207;DHT22;10761;48.532;8.026;2022-12-07T11:15:50;5.20;99.90
21207;DHT22;10761;48.532;8.026;2022-12-07T11:31:17;5.30;99.90
21207;DHT22;10761;48.532;8.026;2022-12-07T11:33:53;5.30;99.90
21207;DHT22;10761;48.532;8.026;2022-12-07T11:36:54;5.20;99.90
21207;DHT22;10761;48.532;8.026;2022-12-07T11:42:10;5.40;99.90
21207;DHT22;10761;48.532;8.026;2022-12-07T11:55:05;5.60;99.90
21207;DHT22;10761;48.532;8.026;2022-12-07T11:57:42;5.60;99.90
21207;DHT22;10761;48.532;8.026;2022-12-07T12:00:14;5.50;99.90
21207;DHT22;10761;48.532;8.026;2022-12-07T12:03:03;5.60;99.90
21207;DHT22;10761;48.532;8.026;2022-12-07T12:05:33;5.50;99.90
21207;DHT22;10761;48.532;8.026;2022-12-07T12:11:08;5.40;99.90
21207;DHT22;10761;48.532;8.026;2022-12-07T12:16:46;5.40;99.90
21207;DHT22;10761;48.532;8.026;2022-12-07T12:22:17;5.50;99.90
21207;DHT22;10761;48.532;8.026;2022-12-07T12:24:46;5.60;99.90
21207;DHT22;10761;48.532;8.026;2022-12-07T12:27:25;5.60;99.90
21207;DHT22;10761;48.532;8.026;2022-12-07T12:30:01;5.70;99.90
21207;DHT22;10761;48.532;8.026;2022-12-07T12:32:40;5.70;99.90
21207;DHT22;10761;48.532;8.026;2022-12-07T12:37:54;5.80;99.90
21207;DHT22;10761;48.532;8.026;2022-12-07T12:42:54;5.80;99.90
21207;DHT22;10761;48.532;8.026;2022-12-07T12:45:29;5.80;99.90
21207;DHT22;10761;48.532;8.026;2022-12-07T12:47:58;5.90;99.90
21207;DHT22;10761;48.532;8.026;2022-12-07T12:50:44;6.10;99.90
21207;DHT22;10761;48.532;8.026;2022-12-07T13:00:46;6.50;99.90
21207;DHT22;10761;48.532;8.026;2022-12-07T13:03:26;6.60;99.90
21207;DHT22;10761;48.532;8.026;2022-12-07T13:08:58;6.50;99.90
21207;DHT22;10761;48.532;8.026;2022-12-07T13:11:33;6.50;99.90
21207;DHT22;10761;48.532;8.026;2022-12-07T13:19:58;6.50;99.90
21207;DHT22;10761;48.532;8.026;2022-12-07T13:27:57;6.20;99.90
21207;DHT22;10761;48.532;8.026;2022-12-07T13:30:23;6.00;99.90
21207;DHT22;10761;48.532;8.026;2022-12-07T13:32:57;5.80;99.90
21207;DHT22;10761;48.532;8.026;2022-12-07T13:35:36;5.70;99.90
21207;DHT22;10761;48.532;8.026;2022-12-07T13:38:13;5.70;99.90
21207;DHT22;10761;48.532;8.026;2022-12-07T13:40:40;5.60;99.90
21207;DHT22;10761;48.532;8.026;2022-12-07T13:43:14;5.70;99.90
21207;DHT22;10761;48.532;8.026;2022-12-07T13:45:41;5.70;99.90
21207;DHT22;10761;48.532;8.026;2022-12-07T13:48:32;5.60;99.90
21207;DHT22;10761;48.532;8.026;2022-12-07T13:51:00;5.60;99.90
21207;DHT22;10761;48.532;8.026;2022-12-07T13:53:27;5.70;99.90
21207;DHT22;10761;48.532;8.026;2022-12-07T13:55:57;5.60;99.90
21207;DHT22;10761;48.532;8.026;2022-12-07T13:58:24;5.60;99.90
21207;DHT22;10761;48.532;8.026;2022-12-07T14:00:50;5.50;99.90
21207;DHT22;10761;48.532;8.026;2022-12-07T14:05:43;5.50;99.90
21207;DHT22;10761;48.532;8.026;2022-12-07T14:10:55;5.50;99.90
21207;DHT22;10761;48.532;8.026;2022-12-07T14:13:32;5.50;99.90
21207;DHT22;10761;48.532;8.026;2022-12-07T14:16:02;5.60;99.90
21207;DHT22;10761;48.532;8.026;2022-12-07T14:18:39;5.50;99.90
21207;DHT22;10761;48.532;8.026;2022-12-07T14:21:16;5.50;99.90
21207;DHT22;10761;48.532;8.026;2022-12-07T14:23:46;5.40;99.90
21207;DHT22;10761;48.532;8.026;2022-12-07T14:26:27;5.40;99.90
21207;DHT22;10761;48.532;8.026;2022-12-07T14:28:53;5.40;99.90
21207;DHT22;10761;48.532;8.026;2022-12-07T14:31:38;5.40;99.90
21207;DHT22;10761;48.532;8.026;2022-12-07T14:34:04;5.50;99.90
21207;DHT22;10761;48.532;8.026;2022-12-07T14:36:29;5.40;99.90
21207;DHT22;10761;48.532;8.026;2022-12-07T14:38:55;5.40;99.90
21207;DHT22;10761;48.532;8.026;2022-12-07T14:41:23;5.40;99.90
21207;DHT22;10761;48.532;8.026;2022-12-07T14:44:12;5.40;99.90
21207;DHT22;10761;48.532;8.026;2022-12-07T14:46:37;5.30;99.90
21207;DHT22;10761;48.532;8.026;2022-12-07T14:49:03;5.30;99.90
21207;DHT22;10761;48.532;8.026;2022-12-07T14:51:29;5.30;99.90
21207;DHT22;10761;48.532;8.026;2022-12-07T14:53:54;5.30;99.90
21207;DHT22;10761;48.532;8.026;2022-12-07T14:56:20;5.20;99.90
21207;DHT22;10761;48.532;8.026;2022-12-07T14:58:46;5.20;99.90
21207;DHT22;10761;48.532;8.026;2022-12-07T15:01:13;5.10;99.90
21207;DHT22;10761;48.532;8.026;2022-12-07T15:03:39;5.10;99.90
21207;DHT22;10761;48.532;8.026;2022-12-07T15:06:05;5.10;99.90
21207;DHT22;10761;48.532;8.026;2022-12-07T15:08:32;5.10;99.90
21207;DHT22;10761;48.532;8.026;2022-12-07T15:10:58;5.10;99.90
21207;DHT22;10761;48.532;8.026;2022-12-07T15:13:23;5.10;99.90
21207;DHT22;10761;48.532;8.026;2022-12-07T15:16:10;5.00;99.90
21207;DHT22;10761;48.532;8.026;2022-12-07T15:18:38;5.00;99.90
21207;DHT22;10761;48.532;8.026;2022-12-07T15:21:03;5.00;99.90
21207;DHT22;10761;48.532;8.026;2022-12-07T15:23:29;5.00;99.90
21207;DHT22;10761;48.532;8.026;2022-12-07T15:25:55;5.00;99.90
21207;DHT22;10761;48.532;8.026;2022-12-07T15:28:20;5.00;99.90
21207;DHT22;10761;48.532;8.026;2022-12-07T15:30:46;5.00;99.90
21207;DHT22;10761;48.532;8.026;2022-12-07T15:33:13;5.00;99.90
21207;DHT22;10761;48.532;8.026;2022-12-07T15:35:43;5.00;99.90
21207;DHT22;10761;48.532;8.026;2022-12-07T15:38:09;4.90;99.90
21207;DHT22;10761;48.532;8.026;2022-12-07T15:40:35;4.80;99.90
21207;DHT22;10761;48.532;8.026;2022-12-07T15:43:02;4.70;99.90
21207;DHT22;10761;48.532;8.026;2022-12-07T15:45:27;4.60;99.90
21207;DHT22;10761;48.532;8.026;2022-12-07T15:47:53;4.50;99.90
21207;DHT22;10761;48.532;8.026;2022-12-07T15:50:21;4.40;99.90
21207;DHT22;10761;48.532;8.026;2022-12-07T15:52:47;4.30;99.90
21207;DHT22;10761;48.532;8.026;2022-12-07T15:55:12;4.30;99.90
21207;DHT22;10761;48.532;8.026;2022-12-07T15:57:38;4.30;99.90
21207;DHT22;10761;48.532;8.026;2022-12-07T16:00:07;4.30;99.90
21207;DHT22;10761;48.532;8.026;2022-12-07T16:02:34;4.20;99.90
21207;DHT22;10761;48.532;8.026;2022-12-07T16:04:59;4.20;99.90
21207;DHT22;10761;48.532;8.026;2022-12-07T16:07:28;4.20;99.90
21207;DHT22;10761;48.532;8.026;2022-12-07T16:10:03;4.20;99.90
21207;DHT22;10761;48.532;8.026;2022-12-07T16:12:31;4.10;99.90
21207;DHT22;10761;48.532;8.026;2022-12-07T16:15:08;4.10;99.90
21207;DHT22;10761;48.532;8.026;2022-12-07T16:17:34;4.00;99.90
21207;DHT22;10761;48.532;8.026;2022-12-07T16:20:00;4.00;99.90
21207;DHT22;10761;48.532;8.026;2022-12-07T16:22:26;4.00;99.90
21207;DHT22;10761;48.532;8.026;2022-12-07T16:24:51;4.00;99.90
21207;DHT22;10761;48.532;8.026;2022-12-07T16:27:17;4.00;99.90
21207;DHT22;10761;48.532;8.026;2022-12-07T16:29:42;4.00;99.90
21207;DHT22;10761;48.532;8.026;2022-12-07T16:32:08;4.10;99.90
21207;DHT22;10761;48.532;8.026;2022-12-07T16:34:34;4.10;99.90
21207;DHT22;10761;48.532;8.026;2022-12-07T16:36:59;4.10;99.90
21207;DHT22;10761;48.532;8.026;2022-12-07T16:39:25;4.10;99.90
21207;DHT22;10761;48.532;8.026;2022-12-07T16:41:51;4.10;99.90
21207;DHT22;10761;48.532;8.026;2022-12-07T16:44:18;4.10;99.90
21207;DHT22;10761;48.532;8.026;2022-12-07T16:46:43;4.10;99.90
21207;DHT22;10761;48.532;8.026;2022-12-07T16:49:12;4.10;99.90
21207;DHT22;10761;48.532;8.026;2022-12-07T16:51:38;4.10;99.90
21207;DHT22;10761;48.532;8.026;2022-12-07T16:54:04;4.10;99.90
21207;DHT22;10761;48.532;8.026;2022-12-07T16:56:30;4.00;99.90
21207;DHT22;10761;48.532;8.026;2022-12-07T16:58:58;4.00;99.90
21207;DHT22;10761;48.532;8.026;2022-12-07T17:01:23;4.10;99.90
21207;DHT22;10761;48.532;8.026;2022-12-07T17:03:49;4.10;99.90
21207;DHT22;10761;48.532;8.026;2022-12-07T17:06:21;4.10;99.90
21207;DHT22;10761;48.532;8.026;2022-12-07T17:08:47;4.10;99.90
21207;DHT22;10761;48.532;8.026;2022-12-07T17:11:15;4.10;99.90
21207;DHT22;10761;48.532;8.026;2022-12-07T17:13:41;4.10;99.90
21207;DHT22;10761;48.532;8.026;2022-12-07T17:16:26;4.10;99.90
21207;DHT22;10761;48.532;8.026;2022-12-07T17:18:52;4.10;99.90
21207;DHT22;10761;48.532;8.026;2022-12-07T17:21:17;4.10;99.90
21207;DHT22;10761;48.532;8.026;2022-12-07T17:23:43;4.10;99.90
21207;DHT22;10761;48.532;8.026;2022-12-07T17:26:24;4.20;99.90
21207;DHT22;10761;48.532;8.026;2022-12-07T17:28:49;4.30;99.90
21207;DHT22;10761;48.532;8.026;2022-12-07T17:31:18;4.30;99.90
21207;DHT22;10761;48.532;8.026;2022-12-07T17:33:44;4.20;99.90
21207;DHT22;10761;48.532;8.026;2022-12-07T17:36:21;4.20;99.90
21207;DHT22;10761;48.532;8.026;2022-12-07T17:38:48;4.20;99.90
21207;DHT22;10761;48.532;8.026;2022-12-07T17:41:17;4.20;99.90
21207;DHT22;10761;48.532;8.026;2022-12-07T17:44:04;4.20;99.90
21207;DHT22;10761;48.532;8.026;2022-12-07T17:46:30;4.20;99.90
21207;DHT22;10761;48.532;8.026;2022-12-07T17:48:56;4.20;99.90
21207;DHT22;10761;48.532;8.026;2022-12-07T17:51:23;4.20;99.90
21207;DHT22;10761;48.532;8.026;2022-12-07T17:54:08;4.20;99.90
21207;DHT22;10761;48.532;8.026;2022-12-07T17:56:34;4.20;99.90
21207;DHT22;10761;48.532;8.026;2022-12-07T17:59:00;4.30;99.90
21207;DHT22;10761;48.532;8.026;2022-12-07T18:01:26;4.20;99.90
21207;DHT22;10761;48.532;8.026;2022-12-07T18:03:51;4.20;99.90
21207;DHT22;10761;48.532;8.026;2022-12-07T18:06:17;4.20;99.90
21207;DHT22;10761;48.532;8.026;2022-12-07T18:08:43;4.20;99.90
21207;DHT22;10761;48.532;8.026;2022-12-07T18:11:09;4.20;99.90
21207;DHT22;10761;48.532;8.026;2022-12-07T18:13:34;4.20;99.90
21207;DHT22;10761;48.532;8.026;2022-12-07T18:16:04;4.20;99.90
21207;DHT22;10761;48.532;8.026;2022-12-07T18:18:30;4.20;99.90
21207;DHT22;10761;48.532;8.026;2022-12-07T18:20:56;4.20;99.90
21207;DHT22;10761;48.532;8.026;2022-12-07T18:23:22;4.20;99.90